Terminal Aerodrome Forecast
Issued by NWS

Home | Current Version | Previous Version | Text Only | Print | Product List | Glossary Off
Versions: 1 2 3 4 5 6 7 8 9 10 11 12 13 14

000
FTUS43 KMPX 041121
TAFRWF
TAF
KRWF 041121Z 0412/0512 35006KT P6SM SKC
     FM041500 03010KT P6SM SCT200
     FM050100 06004KT P6SM SCT120
     FM050800 07004KT P6SM OVC050=

USA.gov is the U.S. government's official web portal to all federal, state and local government web resources and services.